KALO/ALO METAR and TAF weather

Enter ICAO airport designator
Station Type Date Time Source
KALO METAR 2019/06/16 06:54 UTC NOAA

KALO 160654Z AUTO 03006KT 10SM OVC007 17/15 A2976 RMK AO2 SLP072 T01670150 $


Station Type Date Time Source
KALO Decoded METAR 2019/06/16 06:54 UTC NOAA

WATERLOO MUNICIPAL AIRPORT, IA, United States (KALO) 42-33N 92-24W 264M
Jun 16, 2019 - 02:54 AM EDT / 2019.06.16 0654 UTC
Wind: from the NNE (030 degrees) at 7 MPH (6 KT):0
Visibility: 10 mile(s):0
Sky conditions: overcast
Temperature: 62.1 F (16.7 C)
Dew Point: 59.0 F (15.0 C)
Relative Humidity: 89%
Pressure (altimeter): 29.76 in. Hg (1007 hPa)
ob: KALO 160654Z AUTO 03006KT 10SM OVC007 17/15 A2976 RMK AO2 SLP072 T01670150
cycle: 7

Station Type Date Time Source
KALO TAF 2019/06/16 06:22 UTC NOAA

TAF KALO 160520Z 1606/1706 VRB04KT P6SM BKN250
FM160800 06004KT P6SM VCFG OVC006
FM161300 03006KT P6SM BKN015
FM162200 36005KT P6SM BKN030

Example: see airport list